Time;durP1;ratioP1;P1;durP2;ratioP2;P2;SDS_P1;SDS_P2;PMS_P1;PMS_P2;Temp;Humidity;BMP_temperature;BMP_pressure;BME280_temperature;BME280_humidity;BME280_pressure;Samples;Min_cycle;Max_cycle;Signal;HPM_P1;HPM_P2
2021/12/13 00:02:33;;;;;;;0.60;0.53;;;-0.10;97.60;;;;;;4918558;29;20183;-69
2021/12/13 00:05:04;;;;;;;0.50;0.50;;;-0.10;97.30;;;;;;4923469;29;20267;-70
2021/12/13 00:07:37;;;;;;;0.50;0.50;;;-0.10;97.10;;;;;;4915992;29;20683;-70
2021/12/13 00:10:28;;;;;;;0.80;0.80;;;-0.10;97.10;;;;;;4921647;29;20614;-70
2021/12/13 00:13:13;;;;;;;2.63;0.70;;;-0.10;97.00;;;;;;4918461;29;20882;-71
2021/12/13 00:15:56;;;;;;;0.30;0.30;;;-0.10;96.50;;;;;;4915615;29;20191;-71
2021/12/13 00:18:27;;;;;;;0.43;0.43;;;-0.10;96.50;;;;;;4914728;29;20274;-71
2021/12/13 00:21:04;;;;;;;0.23;0.23;;;-0.10;96.50;;;;;;4978725;28;20264;-71
2021/12/13 00:23:42;;;;;;;0.40;0.40;;;0.00;96.30;;;;;;5019588;28;20199;-70
2021/12/13 00:26:08;;;;;;;0.63;0.63;;;0.00;96.00;;;;;;5075239;28;20735;-71
2021/12/13 00:28:38;;;;;;;0.60;0.60;;;0.00;96.10;;;;;;5071986;28;20266;-71
2021/12/13 00:31:23;;;;;;;0.57;0.57;;;0.00;96.00;;;;;;5071222;28;20586;-70
2021/12/13 00:34:08;;;;;;;0.63;0.63;;;0.00;95.80;;;;;;5074487;28;20185;-70
2021/12/13 00:36:47;;;;;;;0.37;0.37;;;0.10;95.60;;;;;;5069134;28;20182;-70
2021/12/13 00:39:19;;;;;;;0.50;0.50;;;0.10;95.40;;;;;;5066261;28;20640;-71
2021/12/13 00:41:48;;;;;;;0.37;0.37;;;0.10;95.30;;;;;;5069594;28;21056;-72
2021/12/13 00:44:35;;;;;;;0.27;0.27;;;0.10;95.10;;;;;;5069892;28;20202;-70
2021/12/13 00:47:12;;;;;;;0.30;0.30;;;0.10;94.60;;;;;;5074418;28;20232;-72
2021/12/13 00:49:45;;;;;;;0.30;0.30;;;0.10;94.30;;;;;;5065963;28;20170;-72
2021/12/13 00:52:16;;;;;;;0.20;0.20;;;0.10;94.30;;;;;;5068353;28;20193;-72
2021/12/13 00:54:44;;;;;;;0.53;0.53;;;0.10;94.00;;;;;;5073094;28;20248;-72
2021/12/13 00:57:40;;;;;;;0.27;0.27;;;0.00;93.90;;;;;;5066033;28;20206;-71
2021/12/13 01:00:30;;;;;;;0.60;0.60;;;0.00;94.10;;;;;;5074561;28;20211;-72
2021/12/13 01:03:00;;;;;;;0.40;0.40;;;0.10;94.10;;;;;;5067961;28;20186;-71
2021/12/13 01:05:35;;;;;;;0.73;0.53;;;0.10;94.00;;;;;;5069075;28;20190;-70
2021/12/13 01:08:59;;;;;;;0.50;0.50;;;0.10;94.10;;;;;;5074098;28;20292;-71
2021/12/13 01:11:52;;;;;;;0.60;0.60;;;0.10;93.90;;;;;;5033840;28;20245;-71
2021/12/13 01:14:57;;;;;;;0.23;0.23;;;0.10;93.90;;;;;;5028493;28;20266;-72
2021/12/13 01:17:53;;;;;;;0.73;0.50;;;0.20;93.90;;;;;;5012652;28;20210;-71
2021/12/13 01:20:29;;;;;;;0.30;0.30;;;0.10;93.50;;;;;;5032603;28;20234;-72
2021/12/13 01:23:05;;;;;;;1.13;0.87;;;0.10;93.60;;;;;;5008506;28;20193;-72
2021/12/13 01:25:43;;;;;;;0.40;0.40;;;0.10;93.70;;;;;;5027450;28;20739;-70
2021/12/13 01:28:24;;;;;;;0.47;0.47;;;0.10;93.80;;;;;;5015868;28;20287;-72
2021/12/13 01:30:55;;;;;;;0.23;0.23;;;0.10;93.90;;;;;;5017125;28;20226;-71
2021/12/13 01:33:23;;;;;;;0.60;0.60;;;0.10;94.00;;;;;;5030183;28;20194;-72
2021/12/13 01:35:55;;;;;;;0.33;0.33;;;0.10;94.20;;;;;;5025943;28;20266;-70
2021/12/13 01:38:33;;;;;;;0.37;0.37;;;0.10;94.00;;;;;;5030547;28;20195;-68
2021/12/13 01:41:08;;;;;;;0.60;0.60;;;0.10;94.20;;;;;;5014776;28;20216;-69
2021/12/13 01:43:35;;;;;;;0.30;0.30;;;0.10;94.30;;;;;;5026547;28;20191;-71
2021/12/13 01:46:01;;;;;;;0.30;0.30;;;0.10;94.30;;;;;;5030540;28;20688;-71
2021/12/13 01:48:35;;;;;;;0.53;0.53;;;0.10;94.20;;;;;;5061437;28;20183;-71
2021/12/13 01:51:05;;;;;;;0.40;0.40;;;0.10;94.10;;;;;;5070800;28;21037;-70
2021/12/13 01:53:42;;;;;;;0.40;0.40;;;0.10;94.10;;;;;;5068761;28;20678;-71
2021/12/13 01:59:17;;;;;;;0.30;0.30;;;0.10;94.40;;;;;;5067725;28;20201;-71
2021/12/13 02:01:43;;;;;;;0.50;0.50;;;0.10;94.40;;;;;;5072081;28;20768;-71
2021/12/13 02:04:13;;;;;;;0.50;0.50;;;0.10;94.50;;;;;;5068638;28;20576;-71
2021/12/13 02:06:48;;;;;;;0.43;0.43;;;0.10;94.50;;;;;;5071627;28;20605;-70
2021/12/13 02:09:21;;;;;;;0.87;0.30;;;0.10;95.10;;;;;;5063296;28;20713;-70
2021/12/13 02:11:51;;;;;;;0.40;0.40;;;0.10;95.40;;;;;;5067724;28;20185;-71
2021/12/13 02:14:21;;;;;;;0.40;0.40;;;0.00;95.40;;;;;;5069364;28;20206;-69
2021/12/13 02:17:08;;;;;;;1.90;0.70;;;0.10;95.70;;;;;;5072690;28;20319;-70
2021/12/13 02:20:07;;;;;;;0.40;0.40;;;0.10;95.80;;;;;;5065539;28;20183;-71
2021/12/13 02:22:48;;;;;;;0.40;0.40;;;0.10;96.10;;;;;;5074156;28;20188;-71
2021/12/13 02:25:44;;;;;;;1.47;0.70;;;0.10;96.20;;;;;;5068424;28;20178;-70
2021/12/13 02:28:12;;;;;;;0.53;0.53;;;0.10;96.40;;;;;;5070845;28;20690;-72
2021/12/13 02:31:10;;;;;;;0.40;0.40;;;0.00;96.50;;;;;;5071861;28;20243;-72
2021/12/13 02:33:44;;;;;;;0.67;0.67;;;0.00;96.70;;;;;;5059638;28;20194;-76
2021/12/13 02:36:25;;;;;;;0.50;0.50;;;0.00;96.90;;;;;;5056729;28;21754;-71
2021/12/13 02:38:54;;;;;;;0.60;0.60;;;0.00;96.90;;;;;;5057630;28;20464;-71
2021/12/13 02:41:23;;;;;;;0.50;0.50;;;0.00;96.90;;;;;;5060739;28;20241;-70
2021/12/13 02:43:53;;;;;;;0.50;0.50;;;0.00;97.10;;;;;;5058638;28;21041;-71
2021/12/13 02:46:19;;;;;;;0.53;0.53;;;0.00;96.90;;;;;;5058916;28;20184;-70
2021/12/13 02:48:51;;;;;;;0.40;0.40;;;0.00;96.80;;;;;;5054688;28;20292;-71
2021/12/13 02:51:23;;;;;;;0.53;0.53;;;0.00;97.10;;;;;;5059198;28;20243;-70
2021/12/13 02:53:53;;;;;;;0.67;0.67;;;0.00;97.20;;;;;;5056839;28;20323;-71
2021/12/13 02:56:22;;;;;;;0.23;0.23;;;0.00;97.30;;;;;;5060720;28;20256;-70
2021/12/13 02:58:50;;;;;;;0.60;0.60;;;0.00;97.20;;;;;;5061557;28;20182;-71
2021/12/13 03:01:22;;;;;;;0.53;0.50;;;0.00;97.30;;;;;;5061019;28;20217;-70
2021/12/13 03:03:54;;;;;;;0.50;0.50;;;0.00;97.30;;;;;;5040769;28;20202;-71
2021/12/13 03:06:24;;;;;;;0.70;0.50;;;-0.10;97.10;;;;;;5055916;28;20278;-71
2021/12/13 03:08:56;;;;;;;0.77;0.77;;;-0.10;97.20;;;;;;5062436;28;20214;-71
2021/12/13 03:11:28;;;;;;;0.33;0.33;;;-0.10;97.40;;;;;;5074776;28;20182;-71
2021/12/13 03:13:59;;;;;;;0.40;0.37;;;-0.10;97.50;;;;;;5077539;28;20277;-73
2021/12/13 03:16:50;;;;;;;0.67;0.67;;;-0.10;97.40;;;;;;5073043;28;20261;-71
2021/12/13 03:19:34;;;;;;;0.30;0.30;;;-0.10;97.50;;;;;;5073728;28;20311;-71
2021/12/13 03:22:38;;;;;;;0.53;0.53;;;-0.10;97.70;;;;;;5069661;28;20183;-71
2021/12/13 03:25:25;;;;;;;0.50;0.50;;;-0.10;97.60;;;;;;5072812;28;20183;-71
2021/12/13 03:28:12;;;;;;;0.80;0.60;;;-0.10;97.70;;;;;;5076241;28;20198;-71
2021/12/13 03:31:00;;;;;;;0.40;0.40;;;-0.10;97.70;;;;;;5075773;28;20186;-71
2021/12/13 03:33:54;;;;;;;0.97;0.60;;;-0.10;97.70;;;;;;5073100;28;20178;-71
2021/12/13 03:36:24;;;;;;;1.33;0.60;;;-0.10;97.90;;;;;;5065748;28;20922;-71
2021/12/13 03:38:54;;;;;;;0.43;0.43;;;-0.10;98.10;;;;;;5082847;28;20277;-71
2021/12/13 03:41:23;;;;;;;0.30;0.30;;;-0.10;98.10;;;;;;5072404;28;20238;-71
2021/12/13 03:43:52;;;;;;;0.40;0.40;;;-0.10;98.10;;;;;;5074004;28;20205;-71
2021/12/13 03:46:20;;;;;;;0.43;0.43;;;-0.10;98.10;;;;;;5073953;28;20222;-71
2021/12/13 03:48:48;;;;;;;0.53;0.53;;;-0.20;98.10;;;;;;5076631;28;20183;-71
2021/12/13 03:51:18;;;;;;;0.60;0.60;;;-0.10;98.10;;;;;;5071156;28;20201;-71
2021/12/13 03:53:47;;;;;;;0.43;0.43;;;-0.10;98.30;;;;;;5073896;28;20183;-71
2021/12/13 03:56:17;;;;;;;0.77;0.70;;;-0.20;98.40;;;;;;5074428;28;20218;-71
2021/12/13 03:58:47;;;;;;;0.40;0.40;;;-0.20;98.10;;;;;;5072255;28;20186;-71
2021/12/13 04:01:43;;;;;;;0.20;0.20;;;-0.20;98.40;;;;;;5069526;28;20210;-71
2021/12/13 04:04:15;;;;;;;1.33;0.40;;;-0.20;98.50;;;;;;5000984;28;20203;-72
2021/12/13 04:06:49;;;;;;;0.20;0.20;;;-0.20;98.50;;;;;;4997086;28;20243;-71
2021/12/13 04:09:17;;;;;;;0.50;0.50;;;-0.20;98.40;;;;;;4977062;28;20232;-72
2021/12/13 04:11:45;;;;;;;0.70;0.70;;;-0.10;98.50;;;;;;4996883;28;20340;-72
2021/12/13 04:14:27;;;;;;;0.60;0.60;;;-0.10;98.50;;;;;;4992956;28;20228;-71
2021/12/13 04:17:19;;;;;;;0.60;0.60;;;-0.20;98.50;;;;;;4996074;28;20887;-72
2021/12/13 04:19:59;;;;;;;0.60;0.60;;;-0.20;98.50;;;;;;4985429;28;20196;-72
2021/12/13 04:22:29;;;;;;;0.40;0.40;;;-0.20;98.50;;;;;;4999457;28;20749;-71
2021/12/13 04:25:10;;;;;;;1.07;0.67;;;-0.20;98.50;;;;;;4992957;28;20236;-72
2021/12/13 04:27:53;;;;;;;0.63;0.63;;;-0.20;98.50;;;;;;4994647;28;20291;-72
2021/12/13 04:30:29;;;;;;;0.60;0.60;;;-0.20;98.50;;;;;;4995251;28;20472;-72
2021/12/13 04:33:03;;;;;;;0.40;0.40;;;-0.20;98.50;;;;;;4995723;28;20193;-71
2021/12/13 04:35:31;;;;;;;0.87;0.50;;;-0.20;98.50;;;;;;4994592;28;20615;-72
2021/12/13 04:38:00;;;;;;;0.73;0.73;;;-0.20;98.50;;;;;;4994441;28;20563;-71
2021/12/13 04:40:29;;;;;;;0.80;0.70;;;-0.20;98.50;;;;;;5010280;28;20619;-72
2021/12/13 04:43:01;;;;;;;0.40;0.40;;;-0.20;98.50;;;;;;5069330;28;20230;-72
2021/12/13 04:45:28;;;;;;;0.50;0.50;;;-0.20;98.50;;;;;;5077252;28;20578;-71
2021/12/13 04:48:16;;;;;;;0.50;0.50;;;-0.30;98.50;;;;;;5073659;28;20634;-71
2021/12/13 04:51:18;;;;;;;0.47;0.47;;;-0.30;98.50;;;;;;5067662;28;20247;-71
2021/12/13 04:53:47;;;;;;;0.60;0.50;;;-0.30;98.50;;;;;;5023524;28;20192;-71
2021/12/13 04:56:16;;;;;;;0.50;0.50;;;-0.30;98.50;;;;;;5030985;28;20200;-71
2021/12/13 04:58:46;;;;;;;0.70;0.70;;;-0.30;98.50;;;;;;5030327;28;20214;-71
2021/12/13 05:01:13;;;;;;;0.30;0.30;;;-0.30;98.50;;;;;;5030470;28;20262;-70
2021/12/13 05:03:45;;;;;;;1.00;0.77;;;-0.30;98.50;;;;;;5031135;28;20219;-72
2021/12/13 05:06:15;;;;;;;2.53;0.60;;;-0.30;98.50;;;;;;5025116;28;20287;-71
2021/12/13 05:08:44;;;;;;;0.80;0.80;;;-0.30;98.50;;;;;;5026982;28;20196;-71
2021/12/13 05:11:12;;;;;;;0.30;0.30;;;-0.30;98.50;;;;;;5008872;28;20200;-72
2021/12/13 05:13:46;;;;;;;0.30;0.30;;;-0.30;98.50;;;;;;5029093;28;20219;-72
2021/12/13 05:16:13;;;;;;;0.83;0.83;;;-0.30;98.50;;;;;;5025525;28;20269;-72
2021/12/13 05:18:50;;;;;;;0.60;0.60;;;-0.30;98.50;;;;;;5030992;28;20192;-72
2021/12/13 05:21:27;;;;;;;0.50;0.50;;;-0.30;98.50;;;;;;5031568;28;20222;-72
2021/12/13 05:23:58;;;;;;;0.50;0.50;;;-0.30;98.50;;;;;;5030992;28;20196;-72
2021/12/13 05:26:43;;;;;;;1.23;1.10;;;-0.20;98.50;;;;;;5023116;28;20193;-72
2021/12/13 05:29:33;;;;;;;0.40;0.40;;;-0.20;98.50;;;;;;5046603;28;20214;-72
2021/12/13 05:32:23;;;;;;;0.90;0.90;;;-0.20;98.50;;;;;;5074193;28;20178;-73
2021/12/13 05:35:08;;;;;;;0.63;0.60;;;-0.20;98.50;;;;;;5071643;28;20269;-72
2021/12/13 05:37:46;;;;;;;0.50;0.50;;;-0.20;98.50;;;;;;5072822;28;20178;-72
2021/12/13 05:40:24;;;;;;;0.70;0.70;;;-0.20;98.50;;;;;;5074610;28;20257;-73
2021/12/13 05:42:58;;;;;;;0.70;0.70;;;-0.10;98.50;;;;;;5073919;28;20335;-75
2021/12/13 05:45:46;;;;;;;0.70;0.70;;;-0.20;98.50;;;;;;5073011;28;20185;-73
2021/12/13 05:48:13;;;;;;;0.93;0.53;;;-0.20;98.50;;;;;;5075299;28;20220;-72
2021/12/13 05:50:48;;;;;;;0.73;0.73;;;-0.20;98.50;;;;;;5071418;28;20218;-73
2021/12/13 05:53:22;;;;;;;2.37;1.10;;;-0.20;98.50;;;;;;5070971;28;20228;-72
2021/12/13 05:56:05;;;;;;;1.00;1.00;;;-0.20;98.50;;;;;;5070257;28;20233;-73
2021/12/13 05:58:33;;;;;;;1.20;1.20;;;-0.20;98.50;;;;;;5070290;28;20183;-72
2021/12/13 06:01:02;;;;;;;1.03;1.00;;;-0.20;98.50;;;;;;5069445;28;20211;-73
2021/12/13 06:03:35;;;;;;;1.00;1.00;;;-0.10;98.50;;;;;;5065992;28;20187;-72
2021/12/13 06:06:13;;;;;;;1.10;1.00;;;-0.10;98.50;;;;;;5070796;28;20183;-71
2021/12/13 06:08:44;;;;;;;0.80;0.80;;;-0.10;98.50;;;;;;5073600;28;20183;-72
2021/12/13 06:11:34;;;;;;;0.73;0.73;;;-0.10;98.50;;;;;;5068618;28;20178;-73
2021/12/13 06:14:20;;;;;;;1.80;1.13;;;0.00;98.50;;;;;;5068362;28;20270;-72
2021/12/13 06:17:10;;;;;;;0.70;0.70;;;0.00;98.50;;;;;;5066834;28;20182;-71
2021/12/13 06:19:41;;;;;;;3.50;1.17;;;0.00;98.50;;;;;;5072757;28;20175;-74
2021/12/13 06:22:22;;;;;;;0.57;0.57;;;0.00;98.50;;;;;;5073913;28;20672;-73
2021/12/13 06:24:51;;;;;;;0.80;0.77;;;0.00;98.50;;;;;;5075175;28;20178;-75
2021/12/13 06:27:21;;;;;;;1.07;1.07;;;0.00;98.50;;;;;;5070571;28;20186;-74
2021/12/13 06:29:55;;;;;;;1.07;1.00;;;0.00;98.50;;;;;;5068692;28;20214;-74
2021/12/13 06:32:28;;;;;;;0.53;0.53;;;0.10;98.50;;;;;;5072061;28;20190;-73
2021/12/13 06:34:54;;;;;;;0.80;0.80;;;0.00;98.50;;;;;;5071040;28;20277;-73
2021/12/13 06:37:35;;;;;;;0.90;0.90;;;0.00;98.50;;;;;;5074128;28;20171;-74
2021/12/13 06:40:27;;;;;;;1.20;1.20;;;0.10;98.50;;;;;;5072862;28;20304;-73
2021/12/13 06:42:58;;;;;;;0.77;0.77;;;0.10;98.50;;;;;;5065854;28;20191;-75
2021/12/13 06:45:36;;;;;;;1.10;1.10;;;0.10;98.50;;;;;;5072964;28;20182;-74
2021/12/13 06:48:05;;;;;;;1.17;1.07;;;0.00;98.50;;;;;;5066543;28;20192;-74
2021/12/13 06:50:39;;;;;;;2.13;1.30;;;0.00;98.50;;;;;;5071215;28;20248;-75
2021/12/13 06:53:18;;;;;;;2.40;1.20;;;0.00;98.50;;;;;;5069951;28;20206;-74
2021/12/13 06:55:46;;;;;;;1.30;1.13;;;0.00;98.50;;;;;;5073294;28;20184;-75
2021/12/13 06:58:24;;;;;;;1.37;1.37;;;0.00;98.50;;;;;;5069308;28;20190;-74
2021/12/13 07:00:55;;;;;;;0.90;0.90;;;0.10;98.50;;;;;;5077329;28;20217;-74
2021/12/13 07:03:34;;;;;;;0.93;0.93;;;0.10;98.50;;;;;;5073967;28;20961;-77
2021/12/13 07:06:03;;;;;;;1.10;1.10;;;0.10;98.50;;;;;;5077238;28;20584;-76
2021/12/13 07:08:36;;;;;;;1.00;1.00;;;0.10;98.50;;;;;;5073994;28;20183;-75
2021/12/13 07:11:12;;;;;;;1.10;1.10;;;0.10;98.50;;;;;;5076838;28;20175;-74
2021/12/13 07:13:45;;;;;;;1.30;1.20;;;0.10;98.50;;;;;;5073578;28;20201;-75
2021/12/13 07:16:28;;;;;;;2.27;1.20;;;0.10;98.50;;;;;;5073209;28;20195;-75
2021/12/13 07:19:00;;;;;;;1.07;1.07;;;0.10;98.50;;;;;;5075879;28;20189;-74
2021/12/13 07:21:35;;;;;;;1.33;1.23;;;0.10;98.50;;;;;;5068984;28;20683;-74
2021/12/13 07:24:07;;;;;;;1.60;1.47;;;0.00;98.50;;;;;;5076288;28;20316;-73
2021/12/13 07:26:41;;;;;;;1.50;1.50;;;0.00;98.50;;;;;;5072639;28;20281;-74
2021/12/13 07:29:20;;;;;;;1.13;1.13;;;0.10;98.50;;;;;;5074452;28;20261;-73
2021/12/13 07:32:11;;;;;;;1.07;1.07;;;0.10;98.50;;;;;;5073027;28;20186;-74
2021/12/13 07:34:57;;;;;;;1.17;1.13;;;0.20;98.50;;;;;;5076057;28;20335;-74
2021/12/13 07:37:46;;;;;;;1.47;1.47;;;0.30;98.50;;;;;;5072014;28;20190;-75
2021/12/13 07:40:48;;;;;;;1.23;1.20;;;0.20;98.50;;;;;;5068885;28;20202;-75
2021/12/13 07:43:27;;;;;;;2.50;1.70;;;0.30;98.50;;;;;;5077314;28;20288;-76
2021/12/13 07:46:09;;;;;;;3.13;1.00;;;0.30;98.50;;;;;;5070620;28;20187;-75
2021/12/13 07:48:39;;;;;;;1.30;1.20;;;0.30;98.50;;;;;;5076568;28;20241;-74
2021/12/13 07:51:19;;;;;;;1.47;1.37;;;0.30;98.50;;;;;;5068005;28;20189;-76
2021/12/13 07:53:48;;;;;;;1.00;1.00;;;0.40;98.50;;;;;;5069382;28;20182;-73
2021/12/13 07:56:22;;;;;;;1.30;1.30;;;0.30;98.50;;;;;;5071106;28;20634;-72
2021/12/13 07:58:58;;;;;;;3.20;1.33;;;0.30;98.50;;;;;;5073248;28;20177;-74
2021/12/13 08:01:27;;;;;;;1.13;1.03;;;0.30;98.50;;;;;;5072396;28;20246;-76
2021/12/13 08:04:15;;;;;;;0.77;0.77;;;0.40;98.50;;;;;;5072652;28;20182;-74
2021/12/13 08:06:47;;;;;;;1.17;1.10;;;0.40;98.50;;;;;;5077506;28;20635;-74
2021/12/13 08:09:17;;;;;;;0.83;0.83;;;0.30;98.50;;;;;;5072629;28;20626;-76
2021/12/13 08:11:46;;;;;;;1.10;1.07;;;0.30;98.50;;;;;;5068989;28;20701;-75
2021/12/13 08:14:13;;;;;;;1.10;1.00;;;0.30;98.50;;;;;;5072056;28;20267;-75
2021/12/13 08:16:43;;;;;;;1.20;1.20;;;0.30;98.50;;;;;;5077137;28;20266;-74
2021/12/13 08:19:22;;;;;;;1.40;1.40;;;0.30;98.50;;;;;;5073431;28;20198;-73
2021/12/13 08:21:56;;;;;;;2.00;1.30;;;0.30;98.50;;;;;;5070321;28;20237;-74
2021/12/13 08:24:33;;;;;;;1.10;1.10;;;0.30;98.50;;;;;;5064647;28;20175;-73
2021/12/13 08:27:07;;;;;;;1.07;1.07;;;0.30;98.50;;;;;;5072828;28;20197;-75
2021/12/13 08:29:36;;;;;;;1.07;1.07;;;0.40;98.50;;;;;;5074884;28;20177;-73
2021/12/13 08:32:16;;;;;;;1.93;1.83;;;0.40;98.50;;;;;;5069700;28;20179;-74
2021/12/13 08:34:50;;;;;;;1.13;1.00;;;0.40;98.50;;;;;;5069553;28;20245;-74
2021/12/13 08:37:21;;;;;;;1.27;1.23;;;0.40;98.40;;;;;;5076089;28;20199;-74
2021/12/13 08:39:54;;;;;;;1.30;1.30;;;0.40;98.50;;;;;;5075525;28;20261;-74
2021/12/13 08:42:22;;;;;;;1.23;1.23;;;0.50;98.40;;;;;;5065484;28;20183;-74
2021/12/13 08:44:57;;;;;;;1.53;1.53;;;0.50;98.40;;;;;;5068215;28;20273;-76
2021/12/13 08:47:30;;;;;;;2.47;1.93;;;0.50;98.40;;;;;;5072052;28;20280;-74
2021/12/13 08:50:03;;;;;;;1.50;1.47;;;0.50;98.10;;;;;;5071748;28;20567;-75
2021/12/13 08:52:40;;;;;;;1.67;1.07;;;0.40;98.20;;;;;;5070936;28;20537;-75
2021/12/13 08:55:18;;;;;;;2.07;1.80;;;0.50;98.20;;;;;;5077170;28;20174;-74
2021/12/13 08:57:49;;;;;;;2.67;1.87;;;0.50;98.20;;;;;;5067885;28;20187;-75
2021/12/13 09:00:22;;;;;;;2.77;2.57;;;0.50;98.30;;;;;;5069152;28;20300;-74
2021/12/13 09:03:12;;;;;;;2.30;1.90;;;0.50;98.20;;;;;;5066397;28;20209;-74
2021/12/13 09:06:05;;;;;;;1.73;1.63;;;0.50;98.00;;;;;;5072770;28;20194;-74
2021/12/13 09:08:34;;;;;;;2.03;1.87;;;0.50;97.90;;;;;;5071139;28;20660;-75
2021/12/13 09:11:22;;;;;;;3.57;2.33;;;0.50;97.80;;;;;;5071383;28;20183;-75
2021/12/13 09:13:57;;;;;;;2.07;1.97;;;0.50;97.90;;;;;;5072482;28;20881;-74
2021/12/13 09:16:38;;;;;;;2.27;1.67;;;0.60;97.60;;;;;;5073533;28;20184;-74
2021/12/13 09:19:31;;;;;;;1.73;1.63;;;0.50;97.40;;;;;;5070874;28;20205;-75
2021/12/13 09:22:08;;;;;;;1.77;1.67;;;0.50;97.30;;;;;;5070904;28;20980;-74
2021/12/13 09:24:49;;;;;;;2.27;1.90;;;0.50;97.40;;;;;;5071072;28;20178;-76
2021/12/13 09:27:42;;;;;;;3.17;1.90;;;0.50;97.50;;;;;;5073569;28;20197;-75
2021/12/13 09:30:19;;;;;;;2.97;1.80;;;0.50;97.40;;;;;;5069328;28;20175;-76
2021/12/13 09:32:54;;;;;;;2.20;2.00;;;0.60;97.70;;;;;;5073618;28;20182;-76
2021/12/13 09:35:40;;;;;;;1.53;1.43;;;0.60;97.40;;;;;;5069796;28;20201;-76
2021/12/13 09:38:27;;;;;;;3.60;1.87;;;0.60;97.40;;;;;;5070627;28;20209;-76
2021/12/13 09:41:20;;;;;;;2.03;1.40;;;0.70;97.50;;;;;;5074475;28;20210;-76
2021/12/13 09:43:49;;;;;;;1.60;1.60;;;0.70;97.30;;;;;;5066718;28;20200;-74
2021/12/13 09:46:27;;;;;;;1.87;1.77;;;0.70;97.10;;;;;;5073881;28;20260;-74
2021/12/13 09:48:56;;;;;;;1.87;1.77;;;0.70;97.10;;;;;;5070070;28;20635;-75
2021/12/13 09:51:28;;;;;;;6.70;1.83;;;0.70;97.20;;;;;;5070356;28;20274;-74
2021/12/13 09:53:59;;;;;;;2.10;2.00;;;0.70;97.20;;;;;;5062675;28;20655;-74
2021/12/13 09:56:32;;;;;;;2.13;1.87;;;0.70;97.20;;;;;;5070164;28;20660;-71
2021/12/13 09:59:03;;;;;;;1.60;1.50;;;0.80;97.10;;;;;;5060810;28;20183;-73
2021/12/13 10:01:38;;;;;;;2.33;2.13;;;0.80;97.00;;;;;;5073404;28;20266;-73
2021/12/13 10:04:09;;;;;;;1.83;1.70;;;0.80;96.90;;;;;;5065427;28;20253;-72
2021/12/13 10:06:50;;;;;;;3.33;1.93;;;0.90;96.80;;;;;;5069180;28;20178;-72
2021/12/13 10:09:29;;;;;;;1.80;1.70;;;0.90;96.60;;;;;;5069359;28;20265;-74
2021/12/13 10:12:14;;;;;;;2.20;2.10;;;0.90;96.40;;;;;;5071766;28;20578;-73
2021/12/13 10:14:45;;;;;;;2.17;2.07;;;0.90;96.50;;;;;;5070820;28;20178;-74
2021/12/13 10:17:15;;;;;;;1.97;1.87;;;1.00;96.60;;;;;;5069679;28;20193;-75
2021/12/13 10:19:45;;;;;;;3.70;1.33;;;1.10;96.50;;;;;;5075429;28;20182;-74
2021/12/13 10:22:14;;;;;;;1.53;1.53;;;1.10;96.40;;;;;;5070990;28;20605;-73
2021/12/13 10:24:45;;;;;;;1.60;1.57;;;1.10;96.00;;;;;;5064146;28;20220;-73
2021/12/13 10:27:14;;;;;;;3.10;2.10;;;1.20;95.80;;;;;;5074210;28;20229;-72
2021/12/13 10:29:44;;;;;;;2.07;1.97;;;1.10;95.80;;;;;;5069964;28;20175;-72
2021/12/13 10:32:26;;;;;;;1.80;1.70;;;1.10;95.80;;;;;;5071707;28;20186;-74
2021/12/13 10:35:00;;;;;;;4.13;2.00;;;1.10;95.70;;;;;;5074904;28;20194;-73
2021/12/13 10:37:31;;;;;;;1.83;1.73;;;1.20;95.90;;;;;;5064234;28;20182;-74
2021/12/13 10:40:04;;;;;;;1.70;1.60;;;1.20;95.50;;;;;;5070870;28;20282;-74
2021/12/13 10:42:37;;;;;;;1.97;1.87;;;1.20;95.40;;;;;;5072888;28;20178;-74
2021/12/13 10:45:08;;;;;;;1.70;1.60;;;1.20;95.40;;;;;;5071251;28;20182;-73
2021/12/13 10:47:39;;;;;;;1.67;1.57;;;1.20;95.50;;;;;;5070449;28;20194;-72
2021/12/13 10:50:09;;;;;;;1.30;1.20;;;1.20;95.70;;;;;;5068871;28;20202;-76
2021/12/13 10:52:38;;;;;;;1.40;1.40;;;1.20;95.50;;;;;;5068534;28;20240;-75
2021/12/13 10:55:19;;;;;;;1.47;1.30;;;1.20;95.40;;;;;;5064120;28;20194;-77
2021/12/13 10:57:50;;;;;;;1.63;1.53;;;1.10;95.20;;;;;;5065054;28;20178;-76
2021/12/13 11:00:25;;;;;;;1.13;1.13;;;1.20;95.40;;;;;;5068998;28;20218;-76
2021/12/13 11:02:59;;;;;;;1.23;1.23;;;1.20;95.50;;;;;;5075374;28;20189;-77
2021/12/13 11:05:28;;;;;;;1.53;1.43;;;1.20;95.40;;;;;;5075614;28;20189;-75
2021/12/13 11:07:55;;;;;;;1.60;1.60;;;1.30;95.60;;;;;;5074803;28;20186;-75
2021/12/13 11:10:31;;;;;;;1.40;1.40;;;1.30;95.30;;;;;;5068130;28;20190;-75
2021/12/13 11:13:00;;;;;;;2.17;2.07;;;1.30;95.20;;;;;;5072149;28;20308;-75
2021/12/13 11:15:30;;;;;;;1.67;1.60;;;1.30;95.10;;;;;;5073461;28;20246;-75
2021/12/13 11:17:56;;;;;;;1.80;1.70;;;1.30;95.30;;;;;;5075749;28;20179;-75
2021/12/13 11:20:28;;;;;;;2.13;2.03;;;1.30;95.50;;;;;;5076052;28;20217;-75
2021/12/13 11:22:55;;;;;;;2.30;2.17;;;1.40;95.50;;;;;;5068849;28;20256;-75
2021/12/13 11:25:25;;;;;;;2.73;2.50;;;1.40;95.20;;;;;;5072057;28;20186;-75
2021/12/13 11:27:51;;;;;;;1.77;1.67;;;1.40;95.30;;;;;;5075570;28;20193;-76
2021/12/13 11:30:24;;;;;;;1.97;1.87;;;1.40;94.90;;;;;;5068711;28;20834;-76
2021/12/13 11:32:59;;;;;;;2.63;2.43;;;1.40;95.10;;;;;;5074467;28;20183;-75
2021/12/13 11:35:39;;;;;;;4.00;2.07;;;1.40;95.20;;;;;;5078076;28;20636;-75
2021/12/13 11:38:43;;;;;;;3.97;2.27;;;1.40;95.10;;;;;;5077778;28;20178;-75
2021/12/13 11:41:35;;;;;;;1.47;1.47;;;1.40;95.10;;;;;;5070115;28;20631;-75
2021/12/13 11:44:40;;;;;;;4.47;2.60;;;1.40;95.00;;;;;;5078199;28;20186;-75
2021/12/13 11:47:36;;;;;;;4.83;2.60;;;1.40;95.10;;;;;;5078103;28;20739;-74
2021/12/13 11:50:40;;;;;;;1.60;1.50;;;1.40;95.40;;;;;;5076345;28;20214;-75
2021/12/13 11:53:24;;;;;;;3.50;2.20;;;1.40;95.30;;;;;;5078947;28;20186;-75
2021/12/13 11:55:49;;;;;;;2.60;2.40;;;1.40;95.20;;;;;;5072214;28;20252;-75
2021/12/13 11:58:46;;;;;;;2.53;2.33;;;1.40;95.10;;;;;;5074844;28;20743;-75
2021/12/13 12:01:43;;;;;;;2.20;2.10;;;1.40;95.10;;;;;;5072118;28;20230;-76
2021/12/13 12:04:46;;;;;;;1.93;1.83;;;1.40;95.20;;;;;;5071265;28;20198;-75
2021/12/13 12:07:30;;;;;;;2.80;2.70;;;1.50;95.20;;;;;;5073566;28;20220;-75
2021/12/13 12:10:21;;;;;;;2.30;2.10;;;1.60;95.00;;;;;;5072614;28;20191;-75
2021/12/13 12:13:08;;;;;;;4.27;2.43;;;1.50;95.00;;;;;;5074453;28;20183;-76
2021/12/13 12:15:37;;;;;;;1.77;1.77;;;1.50;95.10;;;;;;5071686;28;20186;-75
2021/12/13 12:18:06;;;;;;;3.70;2.70;;;1.50;95.10;;;;;;5073451;28;20820;-76
2021/12/13 12:20:39;;;;;;;2.87;2.67;;;1.50;95.30;;;;;;5069420;28;20218;-75
2021/12/13 12:23:08;;;;;;;2.33;2.23;;;1.50;95.30;;;;;;5072919;28;20214;-74
2021/12/13 12:25:36;;;;;;;2.57;1.93;;;1.50;95.40;;;;;;5074520;28;20258;-74
2021/12/13 12:28:14;;;;;;;2.27;2.17;;;1.50;95.40;;;;;;5073643;28;20315;-74
2021/12/13 12:30:47;;;;;;;1.50;1.50;;;1.50;95.50;;;;;;5073895;28;20170;-75
2021/12/13 12:33:27;;;;;;;3.07;2.83;;;1.50;95.50;;;;;;5075925;28;20266;-74
2021/12/13 12:35:53;;;;;;;3.00;2.80;;;1.40;95.60;;;;;;5073272;28;20213;-72
2021/12/13 12:38:27;;;;;;;1.87;1.87;;;1.40;95.80;;;;;;5072752;28;20178;-72
2021/12/13 12:41:11;;;;;;;2.70;2.50;;;1.40;95.80;;;;;;5069587;28;20584;-73
2021/12/13 12:43:50;;;;;;;3.57;1.80;;;1.40;95.80;;;;;;5073082;28;20883;-72
2021/12/13 12:46:16;;;;;;;2.83;2.63;;;1.40;96.20;;;;;;5072756;28;20632;-74
2021/12/13 12:48:46;;;;;;;3.43;2.60;;;1.40;96.10;;;;;;5071647;28;20166;-76
2021/12/13 12:51:17;;;;;;;3.57;2.90;;;1.40;96.10;;;;;;5073549;28;20178;-74
2021/12/13 12:53:58;;;;;;;2.13;2.00;;;1.40;96.10;;;;;;5076789;28;20282;-73
2021/12/13 12:56:35;;;;;;;1.33;1.33;;;1.50;96.10;;;;;;5071316;28;20175;-75
2021/12/13 12:59:13;;;;;;;4.10;2.93;;;1.50;96.00;;;;;;5073446;28;20185;-74
2021/12/13 13:02:04;;;;;;;2.87;2.77;;;1.50;95.80;;;;;;5078478;28;20192;-74
2021/12/13 13:04:39;;;;;;;4.53;2.40;;;1.40;96.10;;;;;;5069642;28;20198;-74
2021/12/13 13:07:12;;;;;;;3.63;2.80;;;1.40;96.10;;;;;;5074249;28;20247;-74
2021/12/13 13:09:51;;;;;;;2.83;1.83;;;1.40;96.20;;;;;;5066783;28;20663;-75
2021/12/13 13:12:33;;;;;;;2.63;2.37;;;1.50;96.20;;;;;;5071300;28;20213;-71
2021/12/13 13:15:10;;;;;;;2.50;2.30;;;1.50;96.10;;;;;;5069018;28;20175;-74
2021/12/13 13:17:43;;;;;;;2.83;2.57;;;1.50;96.00;;;;;;5074642;28;20258;-74
2021/12/13 13:20:29;;;;;;;2.77;2.57;;;1.50;96.00;;;;;;5074650;28;20191;-75
2021/12/13 13:22:57;;;;;;;1.77;1.77;;;1.50;96.00;;;;;;5065471;28;20604;-74
2021/12/13 13:25:29;;;;;;;1.33;1.33;;;1.50;96.00;;;;;;5068085;28;20185;-74
2021/12/13 13:27:57;;;;;;;2.27;2.07;;;1.50;96.00;;;;;;5070067;28;20283;-74
2021/12/13 13:30:37;;;;;;;4.10;2.53;;;1.40;96.20;;;;;;5070216;28;20190;-73
2021/12/13 13:33:04;;;;;;;2.70;2.50;;;1.40;96.20;;;;;;5073264;28;20189;-74
2021/12/13 13:35:30;;;;;;;2.27;2.17;;;1.30;96.30;;;;;;5070699;28;20200;-73
2021/12/13 13:37:56;;;;;;;2.83;1.83;;;1.30;96.40;;;;;;5068122;28;20277;-74
2021/12/13 13:40:26;;;;;;;2.50;2.37;;;1.30;96.50;;;;;;5070616;28;20279;-74
2021/12/13 13:43:06;;;;;;;2.20;1.60;;;1.30;96.60;;;;;;5070753;28;20218;-73
2021/12/13 13:45:54;;;;;;;2.47;2.27;;;1.30;96.60;;;;;;5074267;28;20205;-73
2021/12/13 13:48:25;;;;;;;2.27;1.97;;;1.20;96.80;;;;;;5070146;28;20209;-73